Terminal Aerodrome Forecast
Issued by NWS

Home | Current Version | Previous Version | Text Only | Print | Product List | Glossary On
Versions: 1 2 3 4 5 6 7 8 9 10 11 12 13 14 15 16 17 18
182
FTUS43 KJKL 231016 AAB
TAFSME
TAF AMD
KSME 231016Z 2310/2406 31002KT 3SM BR SCT120
     FM231300 25003KT P6SM SCT030 BKN100
     FM231700 27004KT P6SM VCTS SCT040CB SCT100
     FM232300 28004KT P6SM FEW040 SCT150=

USA.gov is the U.S. government's official web portal to all federal, state and local government web resources and services.